sensor_id;sensor_type;location;lat;lon;timestamp;pressure;altitude;pressure_sealevel;temperature;humidity
50632;BME280;49583;45.590;-122.498;2023-07-13T00:01:31;101136.58;;;30.47;35.81
50632;BME280;49583;45.590;-122.498;2023-07-13T00:03:44;101134.27;;;30.49;35.79
50632;BME280;49583;45.590;-122.498;2023-07-13T00:06:02;101131.72;;;30.50;35.90
50632;BME280;49583;45.590;-122.498;2023-07-13T00:08:18;101131.27;;;30.51;35.90
50632;BME280;49583;45.590;-122.498;2023-07-13T00:10:30;101132.70;;;30.53;35.82
50632;BME280;49583;45.590;-122.498;2023-07-13T00:12:43;101134.73;;;30.54;35.95
50632;BME280;49583;45.590;-122.498;2023-07-13T00:15:10;101128.78;;;30.57;36.09
50632;BME280;49583;45.590;-122.498;2023-07-13T00:17:24;101129.09;;;30.54;35.68
50632;BME280;49583;45.590;-122.498;2023-07-13T00:19:37;101131.41;;;30.53;35.68
50632;BME280;49583;45.590;-122.498;2023-07-13T00:21:49;101127.59;;;30.54;35.88
50632;BME280;49583;45.590;-122.498;2023-07-13T00:24:06;101127.60;;;30.55;35.77
50632;BME280;49583;45.590;-122.498;2023-07-13T00:26:20;101124.90;;;30.56;35.69
50632;BME280;49583;45.590;-122.498;2023-07-13T00:28:32;101121.16;;;30.54;35.80
50632;BME280;49583;45.590;-122.498;2023-07-13T00:30:46;101121.13;;;30.55;35.98
50632;BME280;49583;45.590;-122.498;2023-07-13T00:32:59;101115.41;;;30.52;35.79
50632;BME280;49583;45.590;-122.498;2023-07-13T00:35:26;101116.45;;;30.49;36.14
50632;BME280;49583;45.590;-122.498;2023-07-13T00:37:39;101113.04;;;30.49;36.05
50632;BME280;49583;45.590;-122.498;2023-07-13T00:40:02;101116.11;;;30.51;36.14
50632;BME280;49583;45.590;-122.498;2023-07-13T00:42:15;101116.68;;;30.54;36.13
50632;BME280;49583;45.590;-122.498;2023-07-13T00:44:28;101113.95;;;30.55;35.99
50632;BME280;49583;45.590;-122.498;2023-07-13T00:46:41;101112.67;;;30.56;36.15
50632;BME280;49583;45.590;-122.498;2023-07-13T00:48:56;101110.11;;;30.56;35.89
50632;BME280;49583;45.590;-122.498;2023-07-13T00:51:11;101107.95;;;30.54;35.91
50632;BME280;49583;45.590;-122.498;2023-07-13T00:53:24;101106.35;;;30.54;36.17
50632;BME280;49583;45.590;-122.498;2023-07-13T00:55:38;101108.75;;;30.55;36.02
50632;BME280;49583;45.590;-122.498;2023-07-13T00:57:52;101106.07;;;30.57;35.99
50632;BME280;49583;45.590;-122.498;2023-07-13T01:00:08;101107.94;;;30.56;35.64
50632;BME280;49583;45.590;-122.498;2023-07-13T01:02:23;101103.73;;;30.51;35.55
50632;BME280;49583;45.590;-122.498;2023-07-13T01:04:37;101101.01;;;30.51;35.81
50632;BME280;49583;45.590;-122.498;2023-07-13T01:06:51;101102.67;;;30.50;35.80
50632;BME280;49583;45.590;-122.498;2023-07-13T01:09:05;101103.41;;;30.53;35.93
50632;BME280;49583;45.590;-122.498;2023-07-13T01:11:25;101099.77;;;30.51;35.78
50632;BME280;49583;45.590;-122.498;2023-07-13T01:13:39;101101.38;;;30.47;35.77
50632;BME280;49583;45.590;-122.498;2023-07-13T01:15:53;101096.48;;;30.43;35.76
50632;BME280;49583;45.590;-122.498;2023-07-13T01:18:13;101098.33;;;30.46;36.00
50632;BME280;49583;45.590;-122.498;2023-07-13T01:20:28;101100.75;;;30.46;35.90
50632;BME280;49583;45.590;-122.498;2023-07-13T01:22:41;101103.02;;;30.46;36.05
50632;BME280;49583;45.590;-122.498;2023-07-13T01:24:55;101101.36;;;30.46;35.88
50632;BME280;49583;45.590;-122.498;2023-07-13T01:27:10;101105.79;;;30.44;35.87
50632;BME280;49583;45.590;-122.498;2023-07-13T01:29:24;101104.39;;;30.43;35.99
50632;BME280;49583;45.590;-122.498;2023-07-13T01:31:38;101107.69;;;30.41;35.99
50632;BME280;49583;45.590;-122.498;2023-07-13T01:33:55;101106.36;;;30.38;35.94
50632;BME280;49583;45.590;-122.498;2023-07-13T01:36:09;101104.55;;;30.35;35.85
50632;BME280;49583;45.590;-122.498;2023-07-13T01:38:25;101104.33;;;30.33;36.03
50632;BME280;49583;45.590;-122.498;2023-07-13T01:40:39;101101.70;;;30.31;35.85
50632;BME280;49583;45.590;-122.498;2023-07-13T01:42:53;101103.23;;;30.27;35.78
50632;BME280;49583;45.590;-122.498;2023-07-13T01:45:08;101109.49;;;30.22;35.68
50632;BME280;49583;45.590;-122.498;2023-07-13T01:47:21;101108.38;;;30.19;35.89
50632;BME280;49583;45.590;-122.498;2023-07-13T01:49:39;101108.34;;;30.17;35.92
50632;BME280;49583;45.590;-122.498;2023-07-13T01:51:52;101108.83;;;30.13;35.89
50632;BME280;49583;45.590;-122.498;2023-07-13T01:54:04;101105.54;;;30.10;36.05
50632;BME280;49583;45.590;-122.498;2023-07-13T01:56:17;101105.34;;;30.08;36.05
50632;BME280;49583;45.590;-122.498;2023-07-13T01:58:30;101102.38;;;30.04;36.07
50632;BME280;49583;45.590;-122.498;2023-07-13T02:00:47;101105.73;;;29.99;35.92
50632;BME280;49583;45.590;-122.498;2023-07-13T02:03:00;101109.76;;;29.95;36.05
50632;BME280;49583;45.590;-122.498;2023-07-13T02:05:18;101111.21;;;29.91;36.04
50632;BME280;49583;45.590;-122.498;2023-07-13T02:07:31;101113.39;;;29.88;35.97
50632;BME280;49583;45.590;-122.498;2023-07-13T02:09:45;101115.65;;;29.86;36.01
50632;BME280;49583;45.590;-122.498;2023-07-13T02:11:58;101115.23;;;29.81;35.99
50632;BME280;49583;45.590;-122.498;2023-07-13T02:14:17;101114.40;;;29.77;35.98
50632;BME280;49583;45.590;-122.498;2023-07-13T02:16:30;101112.27;;;29.74;36.09
50632;BME280;49583;45.590;-122.498;2023-07-13T02:18:44;101121.64;;;29.70;36.10
50632;BME280;49583;45.590;-122.498;2023-07-13T02:20:57;101123.65;;;29.66;36.31
50632;BME280;49583;45.590;-122.498;2023-07-13T02:23:10;101131.16;;;29.62;36.33
50632;BME280;49583;45.590;-122.498;2023-07-13T02:25:23;101129.02;;;29.55;36.24
50632;BME280;49583;45.590;-122.498;2023-07-13T02:27:37;101131.05;;;29.50;36.41
50632;BME280;49583;45.590;-122.498;2023-07-13T02:30:01;101130.55;;;29.43;36.39
50632;BME280;49583;45.590;-122.498;2023-07-13T02:32:14;101129.61;;;29.38;36.49
50632;BME280;49583;45.590;-122.498;2023-07-13T02:34:33;101130.15;;;29.33;36.42
50632;BME280;49583;45.590;-122.498;2023-07-13T02:36:48;101131.33;;;29.29;36.61
50632;BME280;49583;45.590;-122.498;2023-07-13T02:39:05;101133.98;;;29.24;36.62
50632;BME280;49583;45.590;-122.498;2023-07-13T02:41:18;101134.52;;;29.20;36.51
50632;BME280;49583;45.590;-122.498;2023-07-13T02:43:31;101135.08;;;29.12;36.58
50632;BME280;49583;45.590;-122.498;2023-07-13T02:45:48;101136.89;;;29.04;36.74
50632;BME280;49583;45.590;-122.498;2023-07-13T02:48:04;101140.90;;;28.98;36.73
50632;BME280;49583;45.590;-122.498;2023-07-13T02:50:21;101143.27;;;28.92;36.82
50632;BME280;49583;45.590;-122.498;2023-07-13T02:52:44;101141.11;;;28.88;36.85
50632;BME280;49583;45.590;-122.498;2023-07-13T02:54:58;101140.21;;;28.84;36.88
50632;BME280;49583;45.590;-122.498;2023-07-13T02:57:11;101139.52;;;28.76;36.77
50632;BME280;49583;45.590;-122.498;2023-07-13T02:59:25;101139.34;;;28.67;36.79
50632;BME280;49583;45.590;-122.498;2023-07-13T03:01:39;101138.57;;;28.56;36.79
50632;BME280;49583;45.590;-122.498;2023-07-13T03:03:57;101140.27;;;28.47;36.89
50632;BME280;49583;45.590;-122.498;2023-07-13T03:06:11;101143.17;;;28.40;36.85
50632;BME280;49583;45.590;-122.498;2023-07-13T03:08:29;101144.23;;;28.34;37.03
50632;BME280;49583;45.590;-122.498;2023-07-13T03:10:46;101146.30;;;28.27;36.96
50632;BME280;49583;45.590;-122.498;2023-07-13T03:13:03;101146.03;;;28.21;36.98
50632;BME280;49583;45.590;-122.498;2023-07-13T03:15:17;101150.20;;;28.12;37.17
50632;BME280;49583;45.590;-122.498;2023-07-13T03:17:34;101150.27;;;28.04;37.01
50632;BME280;49583;45.590;-122.498;2023-07-13T03:19:50;101146.96;;;27.97;37.12
50632;BME280;49583;45.590;-122.498;2023-07-13T03:22:08;101149.59;;;27.90;37.07
50632;BME280;49583;45.590;-122.498;2023-07-13T03:24:22;101144.58;;;27.83;37.01
50632;BME280;49583;45.590;-122.498;2023-07-13T03:26:46;101141.00;;;27.75;36.95
50632;BME280;49583;45.590;-122.498;2023-07-13T03:29:00;101143.13;;;27.71;37.21
50632;BME280;49583;45.590;-122.498;2023-07-13T03:31:16;101146.27;;;27.65;37.04
50632;BME280;49583;45.590;-122.498;2023-07-13T03:33:30;101145.98;;;27.58;37.06
50632;BME280;49583;45.590;-122.498;2023-07-13T03:35:44;101146.05;;;27.52;37.08
50632;BME280;49583;45.590;-122.498;2023-07-13T03:37:58;101150.70;;;27.46;37.07
50632;BME280;49583;45.590;-122.498;2023-07-13T03:40:15;101149.05;;;27.38;37.09
50632;BME280;49583;45.590;-122.498;2023-07-13T03:42:28;101153.73;;;27.32;37.17
50632;BME280;49583;45.590;-122.498;2023-07-13T03:44:41;101158.15;;;27.25;37.20
50632;BME280;49583;45.590;-122.498;2023-07-13T03:46:56;101156.56;;;27.19;37.12
50632;BME280;49583;45.590;-122.498;2023-07-13T03:49:10;101157.94;;;27.12;37.25
50632;BME280;49583;45.590;-122.498;2023-07-13T03:51:24;101157.94;;;27.04;37.16
50632;BME280;49583;45.590;-122.498;2023-07-13T03:53:38;101162.38;;;26.98;37.07
50632;BME280;49583;45.590;-122.498;2023-07-13T03:55:52;101166.20;;;26.93;37.02
50632;BME280;49583;45.590;-122.498;2023-07-13T03:58:29;101166.94;;;26.85;37.03
50632;BME280;49583;45.590;-122.498;2023-07-13T04:00:50;101172.94;;;26.77;36.69
50632;BME280;49583;45.590;-122.498;2023-07-13T04:03:03;101178.27;;;26.67;36.85
50632;BME280;49583;45.590;-122.498;2023-07-13T04:05:16;101176.46;;;26.60;36.54
50632;BME280;49583;45.590;-122.498;2023-07-13T04:07:49;101180.14;;;26.52;36.51
50632;BME280;49583;45.590;-122.498;2023-07-13T04:10:02;101181.60;;;26.42;36.65
50632;BME280;49583;45.590;-122.498;2023-07-13T04:12:15;101185.34;;;26.34;36.43
50632;BME280;49583;45.590;-122.498;2023-07-13T04:14:28;101189.05;;;26.24;36.58
50632;BME280;49583;45.590;-122.498;2023-07-13T04:16:41;101191.02;;;26.16;36.64
50632;BME280;49583;45.590;-122.498;2023-07-13T04:18:54;101196.94;;;26.09;36.63
50632;BME280;49583;45.590;-122.498;2023-07-13T04:21:11;101201.34;;;26.02;36.68
50632;BME280;49583;45.590;-122.498;2023-07-13T04:23:24;101207.84;;;25.98;36.73
50632;BME280;49583;45.590;-122.498;2023-07-13T04:25:36;101210.80;;;25.91;36.91
50632;BME280;49583;45.590;-122.498;2023-07-13T04:27:50;101205.73;;;25.80;36.84
50632;BME280;49583;45.590;-122.498;2023-07-13T04:30:08;101211.30;;;25.74;37.03
50632;BME280;49583;45.590;-122.498;2023-07-13T04:32:21;101216.02;;;25.66;37.21
50632;BME280;49583;45.590;-122.498;2023-07-13T04:34:37;101214.81;;;25.59;37.24
50632;BME280;49583;45.590;-122.498;2023-07-13T04:36:50;101221.39;;;25.51;37.35
50632;BME280;49583;45.590;-122.498;2023-07-13T04:39:07;101225.19;;;25.45;37.39
50632;BME280;49583;45.590;-122.498;2023-07-13T04:41:24;101227.98;;;25.37;37.43
50632;BME280;49583;45.590;-122.498;2023-07-13T04:43:39;101225.73;;;25.30;37.53
50632;BME280;49583;45.590;-122.498;2023-07-13T04:45:55;101225.91;;;25.21;37.81
50632;BME280;49583;45.590;-122.498;2023-07-13T04:48:08;101229.98;;;25.16;37.91
50632;BME280;49583;45.590;-122.498;2023-07-13T04:50:22;101234.67;;;25.10;38.15
50632;BME280;49583;45.590;-122.498;2023-07-13T04:52:38;101236.05;;;25.04;38.33
50632;BME280;49583;45.590;-122.498;2023-07-13T04:54:51;101239.20;;;24.97;38.48
50632;BME280;49583;45.590;-122.498;2023-07-13T04:57:05;101238.89;;;24.91;38.70
50632;BME280;49583;45.590;-122.498;2023-07-13T04:59:22;101242.11;;;24.84;38.86
50632;BME280;49583;45.590;-122.498;2023-07-13T05:01:55;101247.84;;;24.77;39.13
50632;BME280;49583;45.590;-122.498;2023-07-13T05:04:09;101251.98;;;24.72;39.34
50632;BME280;49583;45.590;-122.498;2023-07-13T05:06:22;101260.71;;;24.66;39.59
50632;BME280;49583;45.590;-122.498;2023-07-13T05:08:45;101264.99;;;24.59;39.75
50632;BME280;49583;45.590;-122.498;2023-07-13T05:10:58;101269.51;;;24.51;39.96
50632;BME280;49583;45.590;-122.498;2023-07-13T05:13:31;101274.14;;;24.42;40.20
50632;BME280;49583;45.590;-122.498;2023-07-13T05:16:03;101271.89;;;24.37;40.32
50632;BME280;49583;45.590;-122.498;2023-07-13T05:18:21;101281.63;;;24.31;40.54
50632;BME280;49583;45.590;-122.498;2023-07-13T05:20:34;101282.15;;;24.26;40.62
50632;BME280;49583;45.590;-122.498;2023-07-13T05:22:59;101285.55;;;24.22;40.77
50632;BME280;49583;45.590;-122.498;2023-07-13T05:25:15;101289.05;;;24.15;40.78
50632;BME280;49583;45.590;-122.498;2023-07-13T05:27:29;101289.89;;;24.09;40.93
50632;BME280;49583;45.590;-122.498;2023-07-13T05:29:42;101292.77;;;24.04;40.97
50632;BME280;49583;45.590;-122.498;2023-07-13T05:31:57;101297.09;;;23.97;41.09
50632;BME280;49583;45.590;-122.498;2023-07-13T05:34:14;101299.92;;;23.89;41.20
50632;BME280;49583;45.590;-122.498;2023-07-13T05:36:30;101302.81;;;23.82;41.49
50632;BME280;49583;45.590;-122.498;2023-07-13T05:38:43;101304.65;;;23.77;41.68
50632;BME280;49583;45.590;-122.498;2023-07-13T05:41:16;101308.04;;;23.73;41.83
50632;BME280;49583;45.590;-122.498;2023-07-13T05:43:29;101305.98;;;23.69;42.08
50632;BME280;49583;45.590;-122.498;2023-07-13T05:45:42;101302.77;;;23.63;41.96
50632;BME280;49583;45.590;-122.498;2023-07-13T05:47:55;101298.81;;;23.57;42.14
50632;BME280;49583;45.590;-122.498;2023-07-13T05:50:13;101303.43;;;23.51;42.17
50632;BME280;49583;45.590;-122.498;2023-07-13T05:52:26;101306.44;;;23.43;42.24
50632;BME280;49583;45.590;-122.498;2023-07-13T05:54:39;101308.91;;;23.39;42.48
50632;BME280;49583;45.590;-122.498;2023-07-13T05:56:54;101311.66;;;23.35;42.67
50632;BME280;49583;45.590;-122.498;2023-07-13T05:59:07;101315.64;;;23.28;42.69
50632;BME280;49583;45.590;-122.498;2023-07-13T06:01:23;101313.39;;;23.20;42.82
50632;BME280;49583;45.590;-122.498;2023-07-13T06:03:40;101320.83;;;23.16;42.93
50632;BME280;49583;45.590;-122.498;2023-07-13T06:05:57;101321.33;;;23.11;42.99
50632;BME280;49583;45.590;-122.498;2023-07-13T06:08:11;101322.15;;;23.06;43.06
50632;BME280;49583;45.590;-122.498;2023-07-13T06:10:24;101323.70;;;23.00;43.14
50632;BME280;49583;45.590;-122.498;2023-07-13T06:12:40;101330.98;;;22.94;43.17
50632;BME280;49583;45.590;-122.498;2023-07-13T06:14:56;101336.18;;;22.90;43.43
50632;BME280;49583;45.590;-122.498;2023-07-13T06:17:20;101334.64;;;22.87;43.45
50632;BME280;49583;45.590;-122.498;2023-07-13T06:19:33;101337.67;;;22.83;43.60
50632;BME280;49583;45.590;-122.498;2023-07-13T06:21:49;101338.72;;;22.78;43.56
50632;BME280;49583;45.590;-122.498;2023-07-13T06:24:06;101335.85;;;22.72;43.64
50632;BME280;49583;45.590;-122.498;2023-07-13T06:26:20;101336.67;;;22.66;43.92
50632;BME280;49583;45.590;-122.498;2023-07-13T06:28:33;101335.44;;;22.59;43.97
50632;BME280;49583;45.590;-122.498;2023-07-13T06:30:46;101338.23;;;22.54;43.90
50632;BME280;49583;45.590;-122.498;2023-07-13T06:32:59;101335.77;;;22.50;44.15
50632;BME280;49583;45.590;-122.498;2023-07-13T06:35:15;101333.88;;;22.44;44.19
50632;BME280;49583;45.590;-122.498;2023-07-13T06:37:28;101338.94;;;22.37;44.28
50632;BME280;49583;45.590;-122.498;2023-07-13T06:39:41;101338.54;;;22.32;44.36
50632;BME280;49583;45.590;-122.498;2023-07-13T06:41:54;101347.06;;;22.28;44.41
50632;BME280;49583;45.590;-122.498;2023-07-13T06:44:19;101350.61;;;22.24;44.53
50632;BME280;49583;45.590;-122.498;2023-07-13T06:46:32;101358.18;;;22.21;44.53
50632;BME280;49583;45.590;-122.498;2023-07-13T06:48:45;101358.15;;;22.17;44.71
50632;BME280;49583;45.590;-122.498;2023-07-13T06:50:58;101360.17;;;22.14;44.73
50632;BME280;49583;45.590;-122.498;2023-07-13T06:53:11;101361.34;;;22.11;44.96
50632;BME280;49583;45.590;-122.498;2023-07-13T06:55:24;101361.09;;;22.07;44.85
50632;BME280;49583;45.590;-122.498;2023-07-13T06:57:37;101362.60;;;22.02;44.97
50632;BME280;49583;45.590;-122.498;2023-07-13T06:59:53;101361.08;;;21.96;44.99
50632;BME280;49583;45.590;-122.498;2023-07-13T07:02:07;101361.19;;;21.93;45.09
50632;BME280;49583;45.590;-122.498;2023-07-13T07:04:22;101361.44;;;21.87;45.11
50632;BME280;49583;45.590;-122.498;2023-07-13T07:06:35;101363.76;;;21.86;45.18
50632;BME280;49583;45.590;-122.498;2023-07-13T07:08:48;101365.58;;;21.81;45.08
50632;BME280;49583;45.590;-122.498;2023-07-13T07:11:04;101366.92;;;21.76;45.33
50632;BME280;49583;45.590;-122.498;2023-07-13T07:13:18;101365.54;;;21.73;45.37
50632;BME280;49583;45.590;-122.498;2023-07-13T07:15:34;101367.02;;;21.69;45.37
50632;BME280;49583;45.590;-122.498;2023-07-13T07:17:48;101367.65;;;21.64;45.47
50632;BME280;49583;45.590;-122.498;2023-07-13T07:20:02;101367.02;;;21.63;45.50
50632;BME280;49583;45.590;-122.498;2023-07-13T07:22:15;101368.52;;;21.58;45.66
50632;BME280;49583;45.590;-122.498;2023-07-13T07:24:29;101375.41;;;21.54;45.78
50632;BME280;49583;45.590;-122.498;2023-07-13T07:26:41;101375.31;;;21.50;45.72
50632;BME280;49583;45.590;-122.498;2023-07-13T07:29:00;101374.16;;;21.46;45.90
50632;BME280;49583;45.590;-122.498;2023-07-13T07:31:16;101371.13;;;21.41;45.85
50632;BME280;49583;45.590;-122.498;2023-07-13T07:33:32;101364.20;;;21.35;45.93
50632;BME280;49583;45.590;-122.498;2023-07-13T07:36:05;101366.16;;;21.30;45.99
50632;BME280;49583;45.590;-122.498;2023-07-13T07:38:24;101368.28;;;21.26;46.14
50632;BME280;49583;45.590;-122.498;2023-07-13T07:40:41;101374.08;;;21.21;46.37
50632;BME280;49583;45.590;-122.498;2023-07-13T07:42:57;101378.23;;;21.16;46.34
50632;BME280;49583;45.590;-122.498;2023-07-13T07:45:11;101376.94;;;21.11;46.42
50632;BME280;49583;45.590;-122.498;2023-07-13T07:47:24;101378.91;;;21.06;46.52
50632;BME280;49583;45.590;-122.498;2023-07-13T07:49:37;101374.41;;;21.01;46.67
50632;BME280;49583;45.590;-122.498;2023-07-13T07:51:50;101377.39;;;20.97;46.75
50632;BME280;49583;45.590;-122.498;2023-07-13T07:54:03;101374.08;;;20.94;46.91
50632;BME280;49583;45.590;-122.498;2023-07-13T07:56:16;101373.63;;;20.92;46.89
50632;BME280;49583;45.590;-122.498;2023-07-13T07:58:35;101376.62;;;20.88;46.97
50632;BME280;49583;45.590;-122.498;2023-07-13T08:01:07;101378.90;;;20.82;47.03
50632;BME280;49583;45.590;-122.498;2023-07-13T08:03:22;101382.67;;;20.79;47.23
50632;BME280;49583;45.590;-122.498;2023-07-13T08:05:39;101386.27;;;20.76;47.27
50632;BME280;49583;45.590;-122.498;2023-07-13T08:08:05;101383.85;;;20.72;47.40
50632;BME280;49583;45.590;-122.498;2023-07-13T08:10:18;101382.59;;;20.69;47.45
50632;BME280;49583;45.590;-122.498;2023-07-13T08:12:31;101386.52;;;20.66;47.61
50632;BME280;49583;45.590;-122.498;2023-07-13T08:14:52;101384.08;;;20.64;47.71
50632;BME280;49583;45.590;-122.498;2023-07-13T08:17:08;101385.44;;;20.61;47.76
50632;BME280;49583;45.590;-122.498;2023-07-13T08:19:20;101388.11;;;20.58;47.83
50632;BME280;49583;45.590;-122.498;2023-07-13T08:21:33;101388.92;;;20.54;47.89
50632;BME280;49583;45.590;-122.498;2023-07-13T08:23:50;101390.64;;;20.50;47.97
50632;BME280;49583;45.590;-122.498;2023-07-13T08:26:03;101392.67;;;20.45;48.23
50632;BME280;49583;45.590;-122.498;2023-07-13T08:28:16;101396.11;;;20.41;48.46
50632;BME280;49583;45.590;-122.498;2023-07-13T08:30:30;101398.91;;;20.37;48.62
50632;BME280;49583;45.590;-122.498;2023-07-13T08:32:43;101400.29;;;20.33;48.96
50632;BME280;49583;45.590;-122.498;2023-07-13T08:34:56;101396.81;;;20.28;49.14
50632;BME280;49583;45.590;-122.498;2023-07-13T08:37:09;101394.77;;;20.23;49.39
50632;BME280;49583;45.590;-122.498;2023-07-13T08:39:23;101399.02;;;20.19;49.35
50632;BME280;49583;45.590;-122.498;2023-07-13T08:41:38;101394.59;;;20.14;49.58
50632;BME280;49583;45.590;-122.498;2023-07-13T08:43:54;101396.61;;;20.12;49.72
50632;BME280;49583;45.590;-122.498;2023-07-13T08:46:13;101395.03;;;20.08;49.85
50632;BME280;49583;45.590;-122.498;2023-07-13T08:48:29;101391.73;;;20.03;49.78
50632;BME280;49583;45.590;-122.498;2023-07-13T08:50:51;101394.53;;;19.98;49.89
50632;BME280;49583;45.590;-122.498;2023-07-13T08:53:12;101398.38;;;19.94;49.96
50632;BME280;49583;45.590;-122.498;2023-07-13T08:55:30;101399.67;;;19.90;50.04
50632;BME280;49583;45.590;-122.498;2023-07-13T08:57:46;101403.73;;;19.85;50.20
50632;BME280;49583;45.590;-122.498;2023-07-13T09:00:01;101405.44;;;19.81;50.37
50632;BME280;49583;45.590;-122.498;2023-07-13T09:02:27;101412.98;;;19.79;50.46
50632;BME280;49583;45.590;-122.498;2023-07-13T09:04:48;101414.50;;;19.76;50.54
50632;BME280;49583;45.590;-122.498;2023-07-13T09:07:11;101412.39;;;19.73;50.52
50632;BME280;49583;45.590;-122.498;2023-07-13T09:09:32;101418.27;;;19.70;50.74
50632;BME280;49583;45.590;-122.498;2023-07-13T09:11:54;101420.89;;;19.68;50.77
50632;BME280;49583;45.590;-122.498;2023-07-13T09:14:31;101421.63;;;19.64;50.84
50632;BME280;49583;45.590;-122.498;2023-07-13T09:16:46;101421.63;;;19.61;50.94
50632;BME280;49583;45.590;-122.498;2023-07-13T09:19:07;101424.36;;;19.57;50.94
50632;BME280;49583;45.590;-122.498;2023-07-13T09:21:29;101425.39;;;19.54;51.05
50632;BME280;49583;45.590;-122.498;2023-07-13T09:23:43;101423.83;;;19.50;51.05
50632;BME280;49583;45.590;-122.498;2023-07-13T09:26:02;101425.08;;;19.46;51.10
50632;BME280;49583;45.590;-122.498;2023-07-13T09:28:19;101426.92;;;19.42;51.21
50632;BME280;49583;45.590;-122.498;2023-07-13T09:30:37;101427.16;;;19.38;51.41
50632;BME280;49583;45.590;-122.498;2023-07-13T09:32:53;101428.45;;;19.35;51.46
50632;BME280;49583;45.590;-122.498;2023-07-13T09:35:12;101431.47;;;19.32;51.50
50632;BME280;49583;45.590;-122.498;2023-07-13T09:37:31;101430.34;;;19.29;51.55
50632;BME280;49583;45.590;-122.498;2023-07-13T09:39:45;101431.09;;;19.26;51.74
50632;BME280;49583;45.590;-122.498;2023-07-13T09:42:00;101432.42;;;19.22;51.71
50632;BME280;49583;45.590;-122.498;2023-07-13T09:44:18;101431.51;;;19.17;51.84
50632;BME280;49583;45.590;-122.498;2023-07-13T09:46:31;101429.52;;;19.13;51.96
50632;BME280;49583;45.590;-122.498;2023-07-13T09:48:45;101432.86;;;19.09;52.09
50632;BME280;49583;45.590;-122.498;2023-07-13T09:50:59;101433.42;;;19.04;52.25
50632;BME280;49583;45.590;-122.498;2023-07-13T09:53:21;101434.30;;;19.00;52.39
50632;BME280;49583;45.590;-122.498;2023-07-13T09:55:39;101431.94;;;18.96;52.48
50632;BME280;49583;45.590;-122.498;2023-07-13T09:57:52;101431.77;;;18.92;52.62
50632;BME280;49583;45.590;-122.498;2023-07-13T10:00:18;101433.84;;;18.90;52.69
50632;BME280;49583;45.590;-122.498;2023-07-13T10:02:34;101432.98;;;18.85;52.79
50632;BME280;49583;45.590;-122.498;2023-07-13T10:04:54;101428.36;;;18.81;52.77
50632;BME280;49583;45.590;-122.498;2023-07-13T10:07:12;101424.41;;;18.78;52.91
50632;BME280;49583;45.590;-122.498;2023-07-13T10:09:38;101422.90;;;18.74;52.94
50632;BME280;49583;45.590;-122.498;2023-07-13T10:11:52;101420.77;;;18.70;53.15
50632;BME280;49583;45.590;-122.498;2023-07-13T10:14:09;101420.85;;;18.66;53.24
50632;BME280;49583;45.590;-122.498;2023-07-13T10:16:23;101422.90;;;18.62;53.38
50632;BME280;49583;45.590;-122.498;2023-07-13T10:18:41;101423.37;;;18.60;53.62
50632;BME280;49583;45.590;-122.498;2023-07-13T10:20:58;101424.19;;;18.58;54.13
50632;BME280;49583;45.590;-122.498;2023-07-13T10:23:34;101427.77;;;18.55;54.53
50632;BME280;49583;45.590;-122.498;2023-07-13T10:25:51;101426.03;;;18.51;54.82
50632;BME280;49583;45.590;-122.498;2023-07-13T10:28:11;101422.70;;;18.47;55.04
50632;BME280;49583;45.590;-122.498;2023-07-13T10:30:28;101422.63;;;18.42;55.30
50632;BME280;49583;45.590;-122.498;2023-07-13T10:32:58;101423.23;;;18.37;55.51
50632;BME280;49583;45.590;-122.498;2023-07-13T10:35:14;101427.92;;;18.32;55.31
50632;BME280;49583;45.590;-122.498;2023-07-13T10:37:31;101426.95;;;18.26;55.33
50632;BME280;49583;45.590;-122.498;2023-07-13T10:39:49;101428.52;;;18.20;55.27
50632;BME280;49583;45.590;-122.498;2023-07-13T10:42:09;101432.25;;;18.17;55.40
50632;BME280;49583;45.590;-122.498;2023-07-13T10:44:29;101432.39;;;18.14;55.48
50632;BME280;49583;45.590;-122.498;2023-07-13T10:46:42;101430.81;;;18.10;55.50
50632;BME280;49583;45.590;-122.498;2023-07-13T10:48:57;101427.30;;;18.07;55.56
50632;BME280;49583;45.590;-122.498;2023-07-13T10:51:13;101426.04;;;18.03;55.50
50632;BME280;49583;45.590;-122.498;2023-07-13T10:53:30;101426.09;;;17.99;55.69
50632;BME280;49583;45.590;-122.498;2023-07-13T10:55:58;101424.66;;;17.96;55.76
50632;BME280;49583;45.590;-122.498;2023-07-13T10:58:27;101427.11;;;17.93;55.92
50632;BME280;49583;45.590;-122.498;2023-07-13T11:00:46;101426.06;;;17.91;55.97
50632;BME280;49583;45.590;-122.498;2023-07-13T11:03:03;101429.86;;;17.89;56.13
50632;BME280;49583;45.590;-122.498;2023-07-13T11:05:29;101436.84;;;17.87;56.13
50632;BME280;49583;45.590;-122.498;2023-07-13T11:07:55;101436.90;;;17.85;56.25
50632;BME280;49583;45.590;-122.498;2023-07-13T11:10:49;101441.95;;;17.82;56.29
50632;BME280;49583;45.590;-122.498;2023-07-13T11:13:03;101443.13;;;17.78;56.42
50632;BME280;49583;45.590;-122.498;2023-07-13T11:15:26;101438.61;;;17.76;56.57
50632;BME280;49583;45.590;-122.498;2023-07-13T11:17:50;101436.37;;;17.74;56.58
50632;BME280;49583;45.590;-122.498;2023-07-13T11:20:30;101439.23;;;17.73;56.55
50632;BME280;49583;45.590;-122.498;2023-07-13T11:22:49;101440.66;;;17.71;56.61
50632;BME280;49583;45.590;-122.498;2023-07-13T11:25:20;101441.75;;;17.71;56.75
50632;BME280;49583;45.590;-122.498;2023-07-13T11:27:40;101439.77;;;17.70;56.92